sensor_id;sensor_type;location;lat;lon;timestamp;pressure;altitude;pressure_sealevel;temperature;humidity
83559;BME280;73527;47.882;7.718;2024-01-25T00:00:23;99866.22;;;14.19;67.96
83559;BME280;73527;47.882;7.718;2024-01-25T00:02:48;99856.81;;;14.15;68.42
83559;BME280;73527;47.882;7.718;2024-01-25T00:05:14;99856.56;;;14.32;67.72
83559;BME280;73527;47.882;7.718;2024-01-25T00:07:49;99854.75;;;14.55;66.68
83559;BME280;73527;47.882;7.718;2024-01-25T00:10:16;99856.59;;;14.24;67.32
83559;BME280;73527;47.882;7.718;2024-01-25T00:12:42;99867.31;;;14.01;67.77
83559;BME280;73527;47.882;7.718;2024-01-25T00:15:09;99857.38;;;14.41;67.13
83559;BME280;73527;47.882;7.718;2024-01-25T00:17:34;99863.75;;;14.09;68.75
83559;BME280;73527;47.882;7.718;2024-01-25T00:20:00;99858.16;;;14.10;68.40
83559;BME280;73527;47.882;7.718;2024-01-25T00:22:25;99860.47;;;14.30;67.49
83559;BME280;73527;47.882;7.718;2024-01-25T00:24:51;99854.66;;;14.10;68.42
83559;BME280;73527;47.882;7.718;2024-01-25T00:27:16;99847.00;;;14.22;68.08
83559;BME280;73527;47.882;7.718;2024-01-25T00:29:42;99855.66;;;14.09;67.80
83559;BME280;73527;47.882;7.718;2024-01-25T00:32:07;99851.06;;;14.18;68.30
83559;BME280;73527;47.882;7.718;2024-01-25T00:34:32;99853.75;;;13.87;68.79
83559;BME280;73527;47.882;7.718;2024-01-25T00:36:58;99849.38;;;13.86;68.24
83559;BME280;73527;47.882;7.718;2024-01-25T00:39:23;99853.47;;;14.43;66.33
83559;BME280;73527;47.882;7.718;2024-01-25T00:41:51;99854.03;;;14.31;66.53
83559;BME280;73527;47.882;7.718;2024-01-25T00:44:17;99848.97;;;14.28;66.92
83559;BME280;73527;47.882;7.718;2024-01-25T00:46:43;99845.56;;;14.65;65.77
83559;BME280;73527;47.882;7.718;2024-01-25T00:49:08;99841.44;;;14.23;66.55
83559;BME280;73527;47.882;7.718;2024-01-25T00:51:34;99846.03;;;14.15;67.95
83559;BME280;73527;47.882;7.718;2024-01-25T00:54:01;99849.28;;;14.02;68.89
83559;BME280;73527;47.882;7.718;2024-01-25T00:56:28;99847.53;;;13.78;69.82
83559;BME280;73527;47.882;7.718;2024-01-25T00:58:54;99844.47;;;13.81;69.35
83559;BME280;73527;47.882;7.718;2024-01-25T01:01:21;99844.69;;;14.10;68.35
83559;BME280;73527;47.882;7.718;2024-01-25T01:03:46;99853.53;;;14.27;67.60
83559;BME280;73527;47.882;7.718;2024-01-25T01:06:19;99847.44;;;14.02;68.53
83559;BME280;73527;47.882;7.718;2024-01-25T01:08:44;99839.25;;;13.88;69.22
83559;BME280;73527;47.882;7.718;2024-01-25T01:11:09;99846.22;;;14.13;68.44
83559;BME280;73527;47.882;7.718;2024-01-25T01:13:35;99841.06;;;13.95;69.55
83559;BME280;73527;47.882;7.718;2024-01-25T01:16:00;99852.78;;;13.72;70.54
83559;BME280;73527;47.882;7.718;2024-01-25T01:18:25;99846.59;;;13.63;70.91
83559;BME280;73527;47.882;7.718;2024-01-25T01:20:51;99839.66;;;13.69;70.86
83559;BME280;73527;47.882;7.718;2024-01-25T01:23:16;99849.63;;;13.52;71.26
83559;BME280;73527;47.882;7.718;2024-01-25T01:25:41;99834.47;;;13.59;70.97
83559;BME280;73527;47.882;7.718;2024-01-25T01:28:07;99842.81;;;13.09;73.70
83559;BME280;73527;47.882;7.718;2024-01-25T01:30:32;99854.94;;;13.13;73.83
83559;BME280;73527;47.882;7.718;2024-01-25T01:32:57;99847.34;;;13.00;73.91
83559;BME280;73527;47.882;7.718;2024-01-25T01:35:23;99855.44;;;13.17;73.50
83559;BME280;73527;47.882;7.718;2024-01-25T01:37:48;99843.53;;;13.74;71.20
83559;BME280;73527;47.882;7.718;2024-01-25T01:40:13;99849.69;;;13.36;72.93
83559;BME280;73527;47.882;7.718;2024-01-25T01:42:39;99850.63;;;13.59;72.01
83559;BME280;73527;47.882;7.718;2024-01-25T01:45:05;99833.81;;;13.96;70.82
83559;BME280;73527;47.882;7.718;2024-01-25T01:47:30;99835.22;;;13.84;71.38
83559;BME280;73527;47.882;7.718;2024-01-25T01:49:56;99836.59;;;13.72;71.56
83559;BME280;73527;47.882;7.718;2024-01-25T01:52:22;99846.84;;;13.21;73.42
83559;BME280;73527;47.882;7.718;2024-01-25T01:54:47;99847.50;;;12.75;75.43
83559;BME280;73527;47.882;7.718;2024-01-25T01:57:13;99862.44;;;13.42;73.47
83559;BME280;73527;47.882;7.718;2024-01-25T01:59:38;99864.63;;;13.54;72.65
83559;BME280;73527;47.882;7.718;2024-01-25T02:02:04;99846.53;;;13.71;72.12
83559;BME280;73527;47.882;7.718;2024-01-25T02:04:29;99834.75;;;13.72;72.05
83559;BME280;73527;47.882;7.718;2024-01-25T02:06:55;99836.75;;;13.78;72.14
83559;BME280;73527;47.882;7.718;2024-01-25T02:09:21;99833.72;;;13.81;72.17
83559;BME280;73527;47.882;7.718;2024-01-25T02:11:47;99840.78;;;13.82;71.96
83559;BME280;73527;47.882;7.718;2024-01-25T02:14:12;99834.25;;;13.69;71.47
83559;BME280;73527;47.882;7.718;2024-01-25T02:16:38;99853.38;;;13.51;72.74
83559;BME280;73527;47.882;7.718;2024-01-25T02:19:03;99831.50;;;13.38;73.88
83559;BME280;73527;47.882;7.718;2024-01-25T02:21:29;99815.91;;;13.17;74.80
83559;BME280;73527;47.882;7.718;2024-01-25T02:23:54;99830.19;;;12.93;76.01
83559;BME280;73527;47.882;7.718;2024-01-25T02:26:19;99826.13;;;13.05;75.16
83559;BME280;73527;47.882;7.718;2024-01-25T02:28:45;99823.13;;;13.17;74.83
83559;BME280;73527;47.882;7.718;2024-01-25T02:31:10;99827.84;;;12.98;75.32
83559;BME280;73527;47.882;7.718;2024-01-25T02:33:35;99828.69;;;12.91;75.84
83559;BME280;73527;47.882;7.718;2024-01-25T02:36:01;99822.78;;;13.03;75.42
83559;BME280;73527;47.882;7.718;2024-01-25T02:38:26;99821.75;;;13.29;74.49
83559;BME280;73527;47.882;7.718;2024-01-25T02:40:52;99828.66;;;13.23;74.35
83559;BME280;73527;47.882;7.718;2024-01-25T02:43:19;99813.66;;;13.29;74.32
83559;BME280;73527;47.882;7.718;2024-01-25T02:45:44;99807.06;;;13.47;73.24
83559;BME280;73527;47.882;7.718;2024-01-25T02:48:10;99808.88;;;13.63;73.05
83559;BME280;73527;47.882;7.718;2024-01-25T02:50:35;99805.75;;;13.82;71.71
83559;BME280;73527;47.882;7.718;2024-01-25T02:53:00;99817.66;;;13.49;73.61
83559;BME280;73527;47.882;7.718;2024-01-25T02:55:26;99811.34;;;13.10;74.77
83559;BME280;73527;47.882;7.718;2024-01-25T02:57:51;99797.91;;;13.01;75.63
83559;BME280;73527;47.882;7.718;2024-01-25T03:00:16;99810.50;;;13.09;75.15
83559;BME280;73527;47.882;7.718;2024-01-25T03:02:42;99794.84;;;13.21;74.58
83559;BME280;73527;47.882;7.718;2024-01-25T03:05:07;99806.66;;;13.12;75.23
83559;BME280;73527;47.882;7.718;2024-01-25T03:07:33;99805.28;;;13.07;75.20
83559;BME280;73527;47.882;7.718;2024-01-25T03:09:58;99801.53;;;13.41;74.03
83559;BME280;73527;47.882;7.718;2024-01-25T03:12:23;99805.97;;;13.18;74.56
83559;BME280;73527;47.882;7.718;2024-01-25T03:14:49;99802.13;;;13.59;72.96
83559;BME280;73527;47.882;7.718;2024-01-25T03:17:14;99804.88;;;13.43;73.31
83559;BME280;73527;47.882;7.718;2024-01-25T03:19:39;99808.00;;;13.71;73.38
83559;BME280;73527;47.882;7.718;2024-01-25T03:22:05;99812.09;;;14.20;70.88
83559;BME280;73527;47.882;7.718;2024-01-25T03:24:30;99817.75;;;13.72;72.62
83559;BME280;73527;47.882;7.718;2024-01-25T03:26:55;99831.56;;;13.22;75.18
83559;BME280;73527;47.882;7.718;2024-01-25T03:29:21;99824.03;;;13.95;72.17
83559;BME280;73527;47.882;7.718;2024-01-25T03:31:47;99815.78;;;14.27;70.52
83559;BME280;73527;47.882;7.718;2024-01-25T03:34:12;99813.75;;;13.98;71.10
83559;BME280;73527;47.882;7.718;2024-01-25T03:36:38;99807.97;;;14.09;71.50
83559;BME280;73527;47.882;7.718;2024-01-25T03:39:05;99813.28;;;14.26;70.79
83559;BME280;73527;47.882;7.718;2024-01-25T03:41:30;99819.13;;;14.37;70.81
83559;BME280;73527;47.882;7.718;2024-01-25T03:43:56;99817.59;;;14.43;70.46
83559;BME280;73527;47.882;7.718;2024-01-25T03:46:21;99818.72;;;13.79;72.32
83559;BME280;73527;47.882;7.718;2024-01-25T03:48:46;99817.50;;;14.20;71.39
83559;BME280;73527;47.882;7.718;2024-01-25T03:51:12;99813.06;;;14.27;71.34
83559;BME280;73527;47.882;7.718;2024-01-25T03:53:37;99819.59;;;13.71;73.03
83559;BME280;73527;47.882;7.718;2024-01-25T03:56:02;99808.88;;;14.25;72.45
83559;BME280;73527;47.882;7.718;2024-01-25T03:58:28;99810.22;;;14.29;71.97
83559;BME280;73527;47.882;7.718;2024-01-25T04:00:53;99809.38;;;14.36;71.05
83559;BME280;73527;47.882;7.718;2024-01-25T04:03:19;99807.59;;;13.82;72.60
83559;BME280;73527;47.882;7.718;2024-01-25T04:05:44;99805.66;;;13.98;72.49
83559;BME280;73527;47.882;7.718;2024-01-25T04:08:10;99810.66;;;14.09;71.93
83559;BME280;73527;47.882;7.718;2024-01-25T04:10:35;99810.63;;;14.48;69.91
83559;BME280;73527;47.882;7.718;2024-01-25T04:13:00;99824.53;;;14.60;69.67
83559;BME280;73527;47.882;7.718;2024-01-25T04:15:27;99815.91;;;14.65;69.41
83559;BME280;73527;47.882;7.718;2024-01-25T04:17:52;99819.84;;;14.77;69.38
83559;BME280;73527;47.882;7.718;2024-01-25T04:20:19;99823.63;;;14.68;68.93
83559;BME280;73527;47.882;7.718;2024-01-25T04:22:44;99829.44;;;14.79;68.82
83559;BME280;73527;47.882;7.718;2024-01-25T04:25:10;99822.91;;;14.74;69.23
83559;BME280;73527;47.882;7.718;2024-01-25T04:27:37;99827.81;;;14.70;69.67
83559;BME280;73527;47.882;7.718;2024-01-25T04:30:04;99824.88;;;14.80;69.45
83559;BME280;73527;47.882;7.718;2024-01-25T04:32:30;99829.91;;;14.83;69.34
83559;BME280;73527;47.882;7.718;2024-01-25T04:34:55;99822.75;;;14.52;70.37
83559;BME280;73527;47.882;7.718;2024-01-25T04:37:20;99834.84;;;14.26;71.28
83559;BME280;73527;47.882;7.718;2024-01-25T04:39:46;99839.69;;;14.30;71.43
83559;BME280;73527;47.882;7.718;2024-01-25T04:42:11;99827.41;;;14.36;71.95
83559;BME280;73527;47.882;7.718;2024-01-25T04:44:36;99846.97;;;13.44;75.21
83559;BME280;73527;47.882;7.718;2024-01-25T04:47:02;99830.19;;;14.12;72.76
83559;BME280;73527;47.882;7.718;2024-01-25T04:49:27;99823.78;;;14.66;70.34
83559;BME280;73527;47.882;7.718;2024-01-25T04:51:52;99835.19;;;14.76;69.77
83559;BME280;73527;47.882;7.718;2024-01-25T04:54:17;99834.22;;;14.46;70.79
83559;BME280;73527;47.882;7.718;2024-01-25T04:56:43;99837.88;;;13.92;72.91
83559;BME280;73527;47.882;7.718;2024-01-25T04:59:08;99842.22;;;14.32;71.65
83559;BME280;73527;47.882;7.718;2024-01-25T05:01:34;99847.72;;;14.16;72.13
83559;BME280;73527;47.882;7.718;2024-01-25T05:03:59;99852.19;;;13.92;72.38
83559;BME280;73527;47.882;7.718;2024-01-25T05:06:25;99840.91;;;14.28;71.79
83559;BME280;73527;47.882;7.718;2024-01-25T05:08:51;99838.44;;;14.49;70.29
83559;BME280;73527;47.882;7.718;2024-01-25T05:11:16;99849.06;;;14.12;71.80
83559;BME280;73527;47.882;7.718;2024-01-25T05:13:41;99869.97;;;13.71;73.44
83559;BME280;73527;47.882;7.718;2024-01-25T05:16:06;99866.28;;;13.55;74.05
83559;BME280;73527;47.882;7.718;2024-01-25T05:18:32;99873.28;;;13.18;75.51
83559;BME280;73527;47.882;7.718;2024-01-25T05:20:57;99879.63;;;13.33;74.85
83559;BME280;73527;47.882;7.718;2024-01-25T05:23:23;99888.72;;;13.48;74.67
83559;BME280;73527;47.882;7.718;2024-01-25T05:25:48;99872.72;;;12.74;75.93
83559;BME280;73527;47.882;7.718;2024-01-25T05:28:13;99883.34;;;12.75;76.92
83559;BME280;73527;47.882;7.718;2024-01-25T05:30:39;99892.41;;;12.74;76.16
83559;BME280;73527;47.882;7.718;2024-01-25T05:33:04;99901.06;;;12.36;77.25
83559;BME280;73527;47.882;7.718;2024-01-25T05:35:29;99899.59;;;12.49;77.33
83559;BME280;73527;47.882;7.718;2024-01-25T05:37:55;99906.47;;;12.44;77.00
83559;BME280;73527;47.882;7.718;2024-01-25T05:40:20;99907.91;;;12.22;77.71
83559;BME280;73527;47.882;7.718;2024-01-25T05:42:45;99913.41;;;12.13;77.92
83559;BME280;73527;47.882;7.718;2024-01-25T05:45:11;99908.72;;;12.15;77.96
83559;BME280;73527;47.882;7.718;2024-01-25T05:47:36;99907.94;;;11.88;78.92
83559;BME280;73527;47.882;7.718;2024-01-25T05:50:02;99921.34;;;11.80;79.05
83559;BME280;73527;47.882;7.718;2024-01-25T05:52:28;99922.31;;;11.79;78.57
83559;BME280;73527;47.882;7.718;2024-01-25T05:54:54;99922.88;;;12.25;76.93
83559;BME280;73527;47.882;7.718;2024-01-25T05:57:19;99919.63;;;11.79;78.27
83559;BME280;73527;47.882;7.718;2024-01-25T05:59:46;99921.03;;;11.91;78.02
83559;BME280;73527;47.882;7.718;2024-01-25T06:02:11;99918.00;;;11.86;78.20
83559;BME280;73527;47.882;7.718;2024-01-25T06:04:36;99913.09;;;11.82;77.87
83559;BME280;73527;47.882;7.718;2024-01-25T06:07:02;99918.84;;;11.61;78.14
83559;BME280;73527;47.882;7.718;2024-01-25T06:09:28;99927.75;;;11.87;76.76
83559;BME280;73527;47.882;7.718;2024-01-25T06:11:53;99934.03;;;11.70;77.60
83559;BME280;73527;47.882;7.718;2024-01-25T06:14:19;99934.03;;;11.70;77.21
83559;BME280;73527;47.882;7.718;2024-01-25T06:16:45;99930.19;;;11.73;76.90
83559;BME280;73527;47.882;7.718;2024-01-25T06:19:10;99929.38;;;11.80;76.43
83559;BME280;73527;47.882;7.718;2024-01-25T06:21:36;99932.66;;;11.48;77.02
83559;BME280;73527;47.882;7.718;2024-01-25T06:24:03;99932.06;;;11.80;76.13
83559;BME280;73527;47.882;7.718;2024-01-25T06:26:28;99929.63;;;11.95;75.53
83559;BME280;73527;47.882;7.718;2024-01-25T06:28:54;99936.69;;;11.44;76.97
83559;BME280;73527;47.882;7.718;2024-01-25T06:31:19;99937.63;;;11.61;76.25
83559;BME280;73527;47.882;7.718;2024-01-25T06:33:44;99926.19;;;11.59;76.26
83559;BME280;73527;47.882;7.718;2024-01-25T06:36:12;99926.72;;;11.88;74.44
83559;BME280;73527;47.882;7.718;2024-01-25T06:38:40;99929.22;;;12.16;73.88
83559;BME280;73527;47.882;7.718;2024-01-25T06:41:05;99923.34;;;12.86;71.17
83559;BME280;73527;47.882;7.718;2024-01-25T06:43:31;99923.63;;;12.51;72.04
83559;BME280;73527;47.882;7.718;2024-01-25T06:45:56;99926.69;;;12.64;70.63
83559;BME280;73527;47.882;7.718;2024-01-25T06:48:21;99917.31;;;13.00;69.84
83559;BME280;73527;47.882;7.718;2024-01-25T06:50:46;99927.78;;;13.20;69.24
83559;BME280;73527;47.882;7.718;2024-01-25T06:53:12;99917.84;;;13.20;68.78
83559;BME280;73527;47.882;7.718;2024-01-25T06:55:37;99930.81;;;13.17;68.98
83559;BME280;73527;47.882;7.718;2024-01-25T06:58:03;99928.81;;;13.35;68.50
83559;BME280;73527;47.882;7.718;2024-01-25T07:00:28;99933.53;;;13.25;68.31
83559;BME280;73527;47.882;7.718;2024-01-25T07:02:54;99930.97;;;13.39;68.10
83559;BME280;73527;47.882;7.718;2024-01-25T07:05:19;99939.22;;;13.54;67.50
83559;BME280;73527;47.882;7.718;2024-01-25T07:07:45;99933.84;;;13.30;68.19
83559;BME280;73527;47.882;7.718;2024-01-25T07:10:10;99936.38;;;13.15;68.82
83559;BME280;73527;47.882;7.718;2024-01-25T07:12:35;99931.31;;;13.36;69.15
83559;BME280;73527;47.882;7.718;2024-01-25T07:15:01;99921.53;;;13.43;68.27
83559;BME280;73527;47.882;7.718;2024-01-25T07:17:26;99918.16;;;13.57;67.72
83559;BME280;73527;47.882;7.718;2024-01-25T07:19:51;99920.16;;;13.55;68.24
83559;BME280;73527;47.882;7.718;2024-01-25T07:22:17;99922.03;;;13.06;69.31
83559;BME280;73527;47.882;7.718;2024-01-25T07:24:43;99925.28;;;13.18;69.53
83559;BME280;73527;47.882;7.718;2024-01-25T07:27:09;99920.00;;;12.92;70.43
83559;BME280;73527;47.882;7.718;2024-01-25T07:29:35;99914.63;;;13.49;68.03
83559;BME280;73527;47.882;7.718;2024-01-25T07:32:02;99916.41;;;13.81;67.54
83559;BME280;73527;47.882;7.718;2024-01-25T07:34:27;99912.19;;;13.86;66.84
83559;BME280;73527;47.882;7.718;2024-01-25T07:36:52;99909.91;;;13.67;66.76
83559;BME280;73527;47.882;7.718;2024-01-25T07:39:18;99900.13;;;13.66;66.99
83559;BME280;73527;47.882;7.718;2024-01-25T07:41:43;99915.78;;;13.71;67.28
83559;BME280;73527;47.882;7.718;2024-01-25T07:44:08;99910.91;;;13.66;68.24
83559;BME280;73527;47.882;7.718;2024-01-25T07:46:33;99905.22;;;13.37;69.07
83559;BME280;73527;47.882;7.718;2024-01-25T07:48:59;99908.09;;;13.19;69.29
83559;BME280;73527;47.882;7.718;2024-01-25T07:51:24;99909.22;;;12.68;71.78
83559;BME280;73527;47.882;7.718;2024-01-25T07:53:53;99918.81;;;13.03;71.12
83559;BME280;73527;47.882;7.718;2024-01-25T07:56:19;99915.34;;;13.35;69.91
83559;BME280;73527;47.882;7.718;2024-01-25T07:58:44;99902.53;;;13.29;70.12
83559;BME280;73527;47.882;7.718;2024-01-25T08:01:10;99908.72;;;12.97;71.52
83559;BME280;73527;47.882;7.718;2024-01-25T08:03:37;99916.63;;;13.06;70.79
83559;BME280;73527;47.882;7.718;2024-01-25T08:06:02;99924.41;;;13.42;69.90
83559;BME280;73527;47.882;7.718;2024-01-25T08:08:28;99922.41;;;13.28;69.25
83559;BME280;73527;47.882;7.718;2024-01-25T08:10:53;99927.97;;;13.18;69.93
83559;BME280;73527;47.882;7.718;2024-01-25T08:13:19;99926.09;;;13.11;69.66
83559;BME280;73527;47.882;7.718;2024-01-25T08:15:44;99917.16;;;13.02;70.30
83559;BME280;73527;47.882;7.718;2024-01-25T08:18:10;99905.06;;;13.14;69.32
83559;BME280;73527;47.882;7.718;2024-01-25T08:20:37;99913.13;;;13.54;68.74
83559;BME280;73527;47.882;7.718;2024-01-25T08:23:02;99914.94;;;13.70;68.39
83559;BME280;73527;47.882;7.718;2024-01-25T08:25:28;99904.63;;;13.82;67.91
83559;BME280;73527;47.882;7.718;2024-01-25T08:27:53;99896.28;;;13.61;69.11
83559;BME280;73527;47.882;7.718;2024-01-25T08:30:18;99905.03;;;13.38;70.25
83559;BME280;73527;47.882;7.718;2024-01-25T08:32:44;99902.84;;;13.42;70.02
83559;BME280;73527;47.882;7.718;2024-01-25T08:35:09;99902.22;;;13.24;70.68
83559;BME280;73527;47.882;7.718;2024-01-25T08:37:35;99905.06;;;13.14;70.91
83559;BME280;73527;47.882;7.718;2024-01-25T08:40:03;99899.97;;;13.60;69.95
83559;BME280;73527;47.882;7.718;2024-01-25T08:42:31;99902.50;;;13.53;69.75
83559;BME280;73527;47.882;7.718;2024-01-25T08:44:56;99899.66;;;13.38;69.70
83559;BME280;73527;47.882;7.718;2024-01-25T08:47:21;99906.34;;;13.67;69.04
83559;BME280;73527;47.882;7.718;2024-01-25T08:49:47;99909.84;;;13.83;68.31
83559;BME280;73527;47.882;7.718;2024-01-25T08:52:12;99909.16;;;13.89;68.11
83559;BME280;73527;47.882;7.718;2024-01-25T08:54:37;99912.06;;;14.19;66.95
83559;BME280;73527;47.882;7.718;2024-01-25T08:57:06;99914.34;;;13.99;66.72
83559;BME280;73527;47.882;7.718;2024-01-25T08:59:32;99911.09;;;14.12;66.75
83559;BME280;73527;47.882;7.718;2024-01-25T09:01:58;99910.81;;;14.45;65.86
83559;BME280;73527;47.882;7.718;2024-01-25T09:04:24;99918.94;;;14.29;66.78
83559;BME280;73527;47.882;7.718;2024-01-25T09:06:49;99923.31;;;13.83;68.31
83559;BME280;73527;47.882;7.718;2024-01-25T09:09:14;99913.38;;;14.39;67.42
83559;BME280;73527;47.882;7.718;2024-01-25T09:11:40;99899.22;;;14.59;67.04
83559;BME280;73527;47.882;7.718;2024-01-25T09:14:05;99905.56;;;14.44;67.13
83559;BME280;73527;47.882;7.718;2024-01-25T09:16:30;99907.03;;;14.54;67.39
83559;BME280;73527;47.882;7.718;2024-01-25T09:18:56;99902.16;;;14.50;67.24
83559;BME280;73527;47.882;7.718;2024-01-25T09:21:21;99907.97;;;14.31;67.73
83559;BME280;73527;47.882;7.718;2024-01-25T09:23:46;99910.13;;;14.43;67.87
83559;BME280;73527;47.882;7.718;2024-01-25T09:26:12;99913.28;;;14.55;68.04
83559;BME280;73527;47.882;7.718;2024-01-25T09:28:37;99913.31;;;14.78;66.87
83559;BME280;73527;47.882;7.718;2024-01-25T09:31:02;99910.41;;;14.79;66.79
83559;BME280;73527;47.882;7.718;2024-01-25T09:33:28;99915.03;;;14.93;65.57
83559;BME280;73527;47.882;7.718;2024-01-25T09:35:55;99915.03;;;14.93;65.88
83559;BME280;73527;47.882;7.718;2024-01-25T09:38:21;99919.94;;;15.12;66.18
83559;BME280;73527;47.882;7.718;2024-01-25T09:40:47;99927.63;;;14.78;68.36
83559;BME280;73527;47.882;7.718;2024-01-25T09:43:14;99914.06;;;14.64;68.57
83559;BME280;73527;47.882;7.718;2024-01-25T09:45:41;99923.97;;;14.71;68.91
83559;BME280;73527;47.882;7.718;2024-01-25T09:48:07;99914.19;;;14.70;69.07
83559;BME280;73527;47.882;7.718;2024-01-25T09:50:32;99921.88;;;15.04;68.05
83559;BME280;73527;47.882;7.718;2024-01-25T09:52:59;99918.59;;;14.94;67.35
83559;BME280;73527;47.882;7.718;2024-01-25T09:55:25;99920.13;;;14.66;68.91
83559;BME280;73527;47.882;7.718;2024-01-25T09:57:54;99924.75;;;14.80;67.33
83559;BME280;73527;47.882;7.718;2024-01-25T10:00:23;99919.41;;;14.41;69.23
83559;BME280;73527;47.882;7.718;2024-01-25T10:02:49;99922.59;;;14.44;69.97
83559;BME280;73527;47.882;7.718;2024-01-25T10:05:17;99911.69;;;14.91;68.17
83559;BME280;73527;47.882;7.718;2024-01-25T10:07:44;99911.78;;;15.21;65.67
83559;BME280;73527;47.882;7.718;2024-01-25T10:10:11;99925.84;;;14.24;69.84
83559;BME280;73527;47.882;7.718;2024-01-25T10:12:37;99934.44;;;14.27;69.53
83559;BME280;73527;47.882;7.718;2024-01-25T10:15:04;99928.25;;;14.88;66.87
83559;BME280;73527;47.882;7.718;2024-01-25T10:17:30;99926.44;;;15.03;66.71
83559;BME280;73527;47.882;7.718;2024-01-25T10:19:56;99917.56;;;14.95;66.52
83559;BME280;73527;47.882;7.718;2024-01-25T10:22:22;99921.81;;;14.89;66.73
83559;BME280;73527;47.882;7.718;2024-01-25T10:24:48;99924.47;;;14.75;66.80
83559;BME280;73527;47.882;7.718;2024-01-25T10:27:16;99912.81;;;14.74;67.23
83559;BME280;73527;47.882;7.718;2024-01-25T10:29:42;99920.91;;;14.43;68.43
83559;BME280;73527;47.882;7.718;2024-01-25T10:32:08;99922.53;;;14.83;66.89
83559;BME280;73527;47.882;7.718;2024-01-25T10:34:36;99933.19;;;14.77;67.34
83559;BME280;73527;47.882;7.718;2024-01-25T10:37:03;99918.94;;;14.68;67.99
83559;BME280;73527;47.882;7.718;2024-01-25T10:39:30;99912.34;;;14.93;67.93
83559;BME280;73527;47.882;7.718;2024-01-25T10:41:58;99904.66;;;15.05;67.88
83559;BME280;73527;47.882;7.718;2024-01-25T10:44:23;99912.63;;;15.21;68.21
83559;BME280;73527;47.882;7.718;2024-01-25T10:46:49;99901.50;;;15.39;66.96
83559;BME280;73527;47.882;7.718;2024-01-25T10:49:14;99916.03;;;15.60;65.93
83559;BME280;73527;47.882;7.718;2024-01-25T10:51:41;99911.06;;;15.49;67.29
83559;BME280;73527;47.882;7.718;2024-01-25T10:54:11;99899.50;;;15.55;65.97
83559;BME280;73527;47.882;7.718;2024-01-25T10:56:38;99890.84;;;15.75;65.85
83559;BME280;73527;47.882;7.718;2024-01-25T10:59:03;99884.69;;;15.81;65.26
83559;BME280;73527;47.882;7.718;2024-01-25T11:01:29;99883.47;;;15.69;66.16
83559;BME280;73527;47.882;7.718;2024-01-25T11:03:54;99887.09;;;15.61;65.19
83559;BME280;73527;47.882;7.718;2024-01-25T11:06:21;99893.44;;;15.68;64.50
83559;BME280;73527;47.882;7.718;2024-01-25T11:08:47;99891.34;;;15.41;65.35
83559;BME280;73527;47.882;7.718;2024-01-25T11:11:14;99884.88;;;15.50;66.75
83559;BME280;73527;47.882;7.718;2024-01-25T11:13:41;99882.44;;;15.55;65.65
83559;BME280;73527;47.882;7.718;2024-01-25T11:16:14;99873.31;;;15.19;66.60
83559;BME280;73527;47.882;7.718;2024-01-25T11:18:51;99866.97;;;15.11;67.33
83559;BME280;73527;47.882;7.718;2024-01-25T11:21:28;99874.81;;;15.21;68.35
83559;BME280;73527;47.882;7.718;2024-01-25T11:24:02;99880.59;;;14.95;68.38
83559;BME280;73527;47.882;7.718;2024-01-25T11:26:28;99880.28;;;15.13;68.44
83559;BME280;73527;47.882;7.718;2024-01-25T11:28:54;99866.56;;;15.37;67.70
83559;BME280;73527;47.882;7.718;2024-01-25T11:31:19;99871.47;;;14.51;69.82
83559;BME280;73527;47.882;7.718;2024-01-25T11:33:45;99870.00;;;14.71;69.47
83559;BME280;73527;47.882;7.718;2024-01-25T11:36:10;99857.94;;;14.82;68.01
83559;BME280;73527;47.882;7.718;2024-01-25T11:38:36;99864.69;;;15.00;68.40
83559;BME280;73527;47.882;7.718;2024-01-25T11:41:01;99863.69;;;14.79;69.77
83559;BME280;73527;47.882;7.718;2024-01-25T11:43:27;99862.66;;;15.40;68.29
83559;BME280;73527;47.882;7.718;2024-01-25T11:45:53;99854.69;;;15.76;67.28
83559;BME280;73527;47.882;7.718;2024-01-25T11:48:18;99853.09;;;15.67;65.86
83559;BME280;73527;47.882;7.718;2024-01-25T11:50:44;99839.56;;;15.96;64.53
83559;BME280;73527;47.882;7.718;2024-01-25T11:53:10;99832.84;;;16.06;64.68
83559;BME280;73527;47.882;7.718;2024-01-25T11:55:35;99846.06;;;15.05;68.56
83559;BME280;73527;47.882;7.718;2024-01-25T11:58:01;99835.66;;;15.69;66.55
83559;BME280;73527;47.882;7.718;2024-01-25T12:00:27;99842.78;;;15.33;66.05
83559;BME280;73527;47.882;7.718;2024-01-25T12:02:53;99836.69;;;15.68;64.96
83559;BME280;73527;47.882;7.718;2024-01-25T12:05:19;99829.81;;;15.80;65.42
83559;BME280;73527;47.882;7.718;2024-01-25T12:07:45;99847.25;;;14.88;67.67
83559;BME280;73527;47.882;7.718;2024-01-25T12:10:15;99847.69;;;15.52;66.95
83559;BME280;73527;47.882;7.718;2024-01-25T12:12:40;99838.53;;;15.68;67.78
83559;BME280;73527;47.882;7.718;2024-01-25T12:15:06;99825.41;;;15.79;65.90
83559;BME280;73527;47.882;7.718;2024-01-25T12:17:34;99831.66;;;15.65;67.05
83559;BME280;73527;47.882;7.718;2024-01-25T12:20:04;99826.16;;;15.58;65.92
83559;BME280;73527;47.882;7.718;2024-01-25T12:22:36;99826.13;;;15.44;66.80
83559;BME280;73527;47.882;7.718;2024-01-25T12:25:02;99818.31;;;15.34;67.57
83559;BME280;73527;47.882;7.718;2024-01-25T12:27:31;99817.31;;;15.50;65.47
83559;BME280;73527;47.882;7.718;2024-01-25T12:29:57;99814.75;;;15.34;66.79
83559;BME280;73527;47.882;7.718;2024-01-25T12:32:23;99807.84;;;15.17;67.66
83559;BME280;73527;47.882;7.718;2024-01-25T12:34:59;99800.53;;;15.69;65.91
83559;BME280;73527;47.882;7.718;2024-01-25T12:37:28;99795.75;;;15.71;65.96
83559;BME280;73527;47.882;7.718;2024-01-25T12:39:54;99787.09;;;15.76;66.24
83559;BME280;73527;47.882;7.718;2024-01-25T12:42:19;99789.56;;;15.19;68.74
83559;BME280;73527;47.882;7.718;2024-01-25T12:44:45;99781.09;;;14.70;69.89
83559;BME280;73527;47.882;7.718;2024-01-25T12:47:11;99783.69;;;14.63;71.50
83559;BME280;73527;47.882;7.718;2024-01-25T12:49:41;99776.00;;;14.75;70.49
83559;BME280;73527;47.882;7.718;2024-01-25T12:52:13;99770.56;;;14.97;70.73